Tiempo atmosférico en la estación meteorológica de La Victoria de Acentejo, Santa Cruz de Tenerife (567 m.)



Fecha
DESCASC
Temp. máxima en grados centígrados (hora)
DESCASC
Temp. mínima en grados centígrados (hora)
DESCASC
Temp. media en grados centígrados
DESCASC
Racha de viento máxima en m/sg (hora)
DESCASC
Velocidad máxima media en intervalos de 10 minutos(hora)
DESCASC
Precipitaciones diarias en mm
DESCASC
Precipitaciones de 00:00 a 06:00 en mm
DESCASC
Precipitaciones de 06:00 a 12:00 en mm
DESCASC
Precipitaciones de 12:00 a 18:00 en mm
DESCASC
Precipitaciones de 18:00 a 24:00 en mm
DESCASC
28-02-2021 15.4 (17:00) 9.6 (01:20) 12.5 6.11 (01:50) 4.44 (01:50) 7 1.6 5 0.4 0
27-02-2021 14 (16:00) 10 (21:40) 12 6.94 (12:20) 3.61 (16:10) 0.2 0 0 0.2 0
26-02-2021 14.7 (14:30) 10.4 (07:10) 12.5 7.22 (13:40) 3.89 (13:40) 1.2 0 0.4 0 0.8
25-02-2021 15.7 (16:10) 10.5 (00:00) 13.1 8.89 (12:30) 4.44 (17:20) 3.2 0 0.2 3 0
24-02-2021 17.2 (16:00) 10.1 (00:00) 13.7 7.22 (03:10) 5.28 (16:50) 0.6 0 0 0 0.6
23-02-2021 18.3 (15:10) 9.1 (00:00) 13.7 5.56 (05:10) 4.17 (07:20) 0 0 0 0 0
22-02-2021 18.1 (12:50) 9.1 (00:00) 13.6 6.11 (17:00) 4.17 (22:30) 0 0 0 0 0
21-02-2021 16.1 (14:00) 9.3 (00:00) 12.7 10 (00:20) 5.83 (00:20) 2.8 2.8 0 0 0
20-02-2021 21 (13:40) 9 (00:00) 15 16.39 (20:40) 7.78 (20:50) 22.4 0 0 0 22.4
19-02-2021 18.6 (13:20) 8.3 (00:00) 13.5 5.28 (23:40) 4.17 (23:50) 0 0 0 0 0
18-02-2021 17.7 (14:20) 8.7 (00:00) 13.2 5.56 (03:10) 4.72 (03:10) 0 0 0 0 0
17-02-2021 19.2 (12:20) 9.1 (00:00) 14.2 15.83 (07:10) 9.44 (08:00) 0 0 0 0 0
16-02-2021 20.3 (15:10) 10.7 (00:00) 15.5 11.67 (10:50) 7.22 (05:30) 0 0 0 0 0
15-02-2021 24.5 (12:10) 10.2 (00:00) 17.3 13.89 (14:00) 7.78 (13:10) 0 0 0 0 0
14-02-2021 17.5 (14:10) 8.7 (00:00) 13.1 5 (00:10) 3.33 (05:40) 0 0 0 0 0
13-02-2021 16 (13:50) 8.9 (00:00) 12.4 5.83 (19:10) 3.89 (03:00) 0 0 0 0 0
12-02-2021 17.4 (14:10) 11.4 (00:00) 14.4 7.5 (14:30) 4.72 (17:20) 0.6 0.2 0 0 0.4
11-02-2021 17.2 (13:30) 8.5 (00:00) 12.9 5.83 (05:10) 3.89 (07:30) 0 0 0 0 0
10-02-2021 17.5 (14:50) 8.2 (00:00) 12.8 6.11 (08:10) 4.72 (05:50) 0 0 0 0 0
09-02-2021 16.9 (13:10) 8.5 (00:00) 12.7 5.28 (08:10) 3.89 (23:40) 0 0 0 0 0
08-02-2021 15.4 (15:40) 7.9 (00:00) 11.6 5 (06:00) 4.17 (06:00) 0 0 0 0 0
07-02-2021 14.8 (12:00) 8.3 (00:00) 11.6 5.28 (05:10) 4.17 (05:20) 0 0 0 0 0
06-02-2021 14.2 (14:20) 8.5 (00:00) 11.3 9.17 (00:30) 5 (12:10) 7.8 2.4 2.6 0.8 2
05-02-2021 10.6 (16:20) 7.1 (00:00) 8.9 10.56 (18:20) 5 (04:20) 53.2 6 10.8 9.8 26.6
04-02-2021 13.6 (00:40) 8.1 (00:00) 10.9 11.67 (19:10) 7.22 (17:10) 49 24 20.2 2.4 2.4
03-02-2021 14.8 (12:10) 9.1 (00:00) 12 6.67 (23:59) 3.61 (23:59) 0 0 0 0 0
02-02-2021 20.8 (16:10) 10.7 (22:50) 15.7 3.89 (02:10) 2.5 (05:00) 0 0 0 0 0
01-02-2021 19.9 (13:00) 11.3 (00:00) 15.6 6.67 (08:00) 2.5 (14:00) 0 0 0 0 0
31-01-2021 17.9 (13:30) 10.6 (00:00) 14.3 5 (13:10) 3.06 (00:20) 0 0 0 0 0
30-01-2021 18.3 (13:10) 9.9 (00:00) 14.1 6.67 (05:10) 5 (05:10) 0 0 0 0 0

Gráficas

Temp. máximas Temp. mínimas Temp. medias Precipitaciones Rachas de viento máximas Velocidades máximas media en intervalos de 10 minutos

Datos horarios

Fecha y hora oficial Temperatura (ºC) Velocidad del viento (km/h) Dirección del viento Racha (km/h) Dirección de racha Precipitación (mm) Presión (hPa) Tendencia (hPa) Humedad (%)
2021-02-28 23:00:00 11.4 4 Sur 10 Sudoeste 0 -- -- 80
2021-02-28 22:00:00 10.9 4 Sudoeste 14 Sur 0 -- -- 82
2021-02-28 21:00:00 10 8 Sur 9 Sur 0 -- -- 86
2021-02-28 20:00:00 10.8 3 Sur 7 Noroeste 0 -- -- 92
2021-02-28 19:00:00 12.9 3 Noroeste 12 Norte 0 -- -- 83
2021-02-28 18:00:00 13.4 6 Norte 15 Noroeste 0 -- -- 82
2021-02-28 17:00:00 15.4 10 Noroeste 17 Noroeste 0 -- -- 72
2021-02-28 16:00:00 15.1 9 Noroeste 18 Norte 0 -- -- 73
2021-02-28 15:00:00 14.3 9 Noroeste 15 Noroeste 0 -- -- 80
2021-02-28 14:00:00 12.8 5 Sudoeste 20 Norte 0.4 -- -- 84
2021-02-28 13:00:00 14 6 Norte 15 Oeste 0 -- -- 76
2021-02-28 12:00:00 13.4 7 Oeste 17 Oeste 0.4 -- -- 83
2021-02-28 11:00:00 11.4 10 Sudoeste 21 Norte 1 -- -- 92
2021-02-28 10:00:00 12.4 6 Noroeste 9 Noroeste 0 -- -- 83
2021-02-28 09:00:00 12.3 4 Sur 14 Sudoeste 0 -- -- 81
2021-02-28 08:00:00 11.1 8 Sur 13 Sudoeste 0 -- -- 82
2021-02-28 07:00:00 10.2 9 Sudoeste 13 Sudoeste 3.6 -- -- 92
2021-02-28 06:00:00 10.2 5 Sudoeste 14 Oeste 0.8 -- -- 92
2021-02-28 05:00:00 10.2 6 Sudoeste 17 Oeste 0.4 -- -- 89
2021-02-28 04:00:00 11 8 Oeste 15 Sudoeste 0 -- -- 78
2021-02-28 03:00:00 10.8 6 Sur 17 Sur 0 -- -- 77
2021-02-28 02:00:00 10.1 14 Sur 22 Sudoeste 0.4 -- -- 83
2021-02-28 01:00:00 10.3 3 Sur 13 Oeste 0 -- -- 83
2021-02-28 00:00:00 10.9 6 Sudoeste 10 Sudoeste 0 -- -- 79
2021-02-27 23:00:00 10.9 6 Sudoeste 12 Sudoeste 0 -- -- 78
2021-02-27 22:00:00 10.5 5 Sudoeste 9 Sudoeste 0 -- -- 80
2021-02-27 21:00:00 11.2 0 Calma 9 Noroeste 0 -- -- 78
2021-02-27 20:00:00 11.3 8 Norte 17 Norte 0 -- -- 79
2021-02-27 19:00:00 11.6 11 Norte 17 Norte 0 -- -- 79
2021-02-27 18:00:00 12.4 7 Noroeste 17 Noroeste 0 -- -- 68
2021-02-27 17:00:00 13.4 11 Noroeste 23 Noroeste 0 -- -- 62
2021-02-27 16:00:00 14 10 Noroeste 18 Noroeste 0 -- -- 62
2021-02-27 15:00:00 12.6 13 Norte 20 Norte 0 -- -- 68
2021-02-27 14:00:00 12.3 9 Norte 18 Norte 0.2 -- -- 72
2021-02-27 13:00:00 11.4 4 Noroeste 25 Norte 0 -- -- 78
2021-02-27 12:00:00 12.4 9 Norte 18 Norte 0 -- -- 70
2021-02-27 11:00:00 12.5 9 Noroeste 16 Noroeste 0 -- -- 67
2021-02-27 10:00:00 11.8 7 Norte 13 Norte 0 -- -- 68
2021-02-27 09:00:00 11 0 Calma 12 Oeste 0 -- -- 72
2021-02-27 08:00:00 10.7 7 Oeste 13 Sudoeste 0 -- -- 73
2021-02-27 07:00:00 10.4 5 Sudoeste 10 Sur 0 -- -- 77
2021-02-27 06:00:00 10.1 8 Sur 12 Sur 0 -- -- 77
2021-02-27 05:00:00 10.2 6 Sudoeste 9 Sudoeste 0 -- -- 84
2021-02-27 04:00:00 10.5 4 Norte 16 Norte 0 -- -- 83
2021-02-27 03:00:00 10.9 4 Noroeste 18 Norte 0 -- -- 71
2021-02-27 02:00:00 10.9 9 Nordeste 18 Norte 0 -- -- 78
2021-02-27 01:00:00 11.2 7 Norte 19 Norte 0 -- -- 84
2021-02-27 00:00:00 11.2 8 Norte 19 Nordeste 0 -- -- 85
2021-02-26 23:00:00 11 8 Nordeste 16 Norte 0 -- -- 90
2021-02-26 22:00:00 11.2 4 Noroeste 14 Nordeste 0.2 -- -- 90
2021-02-26 21:00:00 11.4 5 Noroeste 18 Norte 0 -- -- 86
2021-02-26 20:00:00 11 9 Oeste 24 Oeste 0.6 -- -- 91
2021-02-26 19:00:00 12.2 7 Norte 23 Nordeste 0 -- -- 77
2021-02-26 18:00:00 12.4 10 Norte 21 Norte 0 -- -- 77
2021-02-26 17:00:00 12.9 10 Norte 24 Norte 0 -- -- 74
2021-02-26 16:00:00 13.4 10 Norte 21 Norte 0 -- -- 75
2021-02-26 15:00:00 13.7 10 Norte 23 Norte 0 -- -- 68
2021-02-26 14:00:00 13.9 13 Nordeste 26 Nordeste 0 -- -- 64
2021-02-26 13:00:00 13.8 13 Norte 23 Norte 0 -- -- 71
2021-02-26 12:00:00 12.5 5 Oeste 20 Noroeste 0 -- -- 77
2021-02-26 11:00:00 12.5 3 Oeste 13 Norte 0.2 -- -- 75
2021-02-26 10:00:00 11.4 4 Sur 11 Sudoeste 0.2 -- -- 84
2021-02-26 09:00:00 11.4 3 Sur 13 Sur 0 -- -- 79
2021-02-26 08:00:00 10.5 5 Sudeste 11 Oeste 0 -- -- 81
2021-02-26 07:00:00 10.5 3 Este 15 Oeste 0 -- -- 75
2021-02-26 06:00:00 11 5 Nordeste 15 Norte 0 -- -- 76
2021-02-26 05:00:00 10.8 0 Calma 14 Nordeste 0 -- -- 79
2021-02-26 04:00:00 11.2 4 Norte 17 Nordeste 0 -- -- 85
2021-02-26 03:00:00 10.9 2 Sudeste 12 Norte 0 -- -- 81
2021-02-26 02:00:00 11.1 5 Norte 10 Sudoeste 0 -- -- 81
2021-02-26 01:00:00 11 3 Noroeste 12 Noroeste 0 -- -- 78
2021-02-26 00:00:00 10.5 3 Sudoeste 9 Norte 0 -- -- 81
2021-02-25 23:00:00 11.1 5 Nordeste 15 Nordeste 0 -- -- 80
2021-02-25 22:00:00 11.2 6 Este 17 Nordeste 0 -- -- 82
2021-02-25 21:00:00 11.7 9 Nordeste 16 Nordeste 0 -- -- 83
2021-02-25 20:00:00 11.8 7 Este 19 Este 0 -- -- 86
2021-02-25 19:00:00 12.4 10 Este 20 Este 0 -- -- 84
2021-02-25 18:00:00 13 12 Nordeste 24 Nordeste 0 -- -- 85
2021-02-25 17:00:00 14.3 14 Nordeste 22 Nordeste 0 -- -- 80
2021-02-25 16:00:00 14.8 4 Nordeste 28 Este 0 -- -- 77
2021-02-25 15:00:00 13.4 11 Nordeste 27 Nordeste 0 -- -- 91
2021-02-25 14:00:00 13.1 15 Nordeste 31 Nordeste 0 -- -- 94
2021-02-25 13:00:00 13.3 15 Este 32 Nordeste 3 -- -- 96
2021-02-25 12:00:00 13.7 13 Nordeste 24 Nordeste 0 -- -- 96
2021-02-25 11:00:00 14.8 6 Norte 19 Este 0.2 -- -- 92
2021-02-25 10:00:00 14.3 5 Noroeste 14 Este 0 -- -- 91
2021-02-25 09:00:00 13.6 0 Calma 6 Sudoeste 0 -- -- 90
2021-02-25 08:00:00 12.9 0 Calma 10 Sudeste 0 -- -- 91
2021-02-25 07:00:00 12.5 3 Sudoeste 7 Sudeste 0 -- -- 88
2021-02-25 06:00:00 12.5 5 Sudeste 19 Sudeste 0 -- -- 88
2021-02-25 05:00:00 12.6 10 Sudeste 16 Sudeste 0 -- -- 82
2021-02-25 04:00:00 12.5 10 Sur 19 Sudeste 0 -- -- 83
2021-02-25 03:00:00 10.9 11 Sudeste 15 Sudeste 0 -- -- 84
2021-02-25 02:00:00 12.4 8 Sudeste 16 Sudeste 0 -- -- 85
2021-02-25 01:00:00 12.4 6 Sudeste 12 Este 0 -- -- 91
2021-02-25 00:00:00 12.7 9 Este 21 Este 0 -- -- 87
2021-02-24 23:00:00 13.1 8 Este 17 Nordeste 0.4 -- -- 90
2021-02-24 22:00:00 13.3 3 Nordeste 13 Este 0.2 -- -- 92
2021-02-24 21:00:00 13.4 5 Nordeste 11 Este 0 -- -- 91
2021-02-24 20:00:00 13.6 5 Nordeste 12 Nordeste 0 -- -- 92
2021-02-24 19:00:00 14.3 9 Nordeste 16 Nordeste 0 -- -- 89
2021-02-24 18:00:00 14.9 5 Este 21 Nordeste 0 -- -- 75
2021-02-24 17:00:00 15.7 16 Nordeste 25 Norte 0 -- -- 76
2021-02-24 16:00:00 17.2 10 Nordeste 23 Nordeste 0 -- -- 70
2021-02-24 15:00:00 15.6 13 Este 23 Nordeste 0 -- -- 75
2021-02-24 14:00:00 15.1 12 Nordeste 22 Nordeste 0 -- -- 77
2021-02-24 13:00:00 15.5 14 Nordeste 21 Nordeste 0 -- -- 72
2021-02-24 12:00:00 16.8 8 Norte 18 Nordeste 0 -- -- 64
2021-02-24 11:00:00 14.6 6 Sudeste 11 Norte 0 -- -- 74
2021-02-24 10:00:00 14.2 7 Sur 17 Sur 0 -- -- 71
2021-02-24 09:00:00 13.1 6 Sudeste 14 Sur 0 -- -- 81
2021-02-24 08:00:00 11.6 9 Sudeste 17 Sudeste 0 -- -- 81
2021-02-24 07:00:00 11.2 12 Este 18 Este 0 -- -- 85
2021-02-24 06:00:00 11.5 12 Sudeste 23 Sudeste 0 -- -- 83
2021-02-24 05:00:00 10.5 15 Sudeste 20 Sudeste 0 -- -- 85
2021-02-24 04:00:00 10.1 14 Sudeste 26 Sudeste 0 -- -- 86
2021-02-24 03:00:00 11 15 Sudeste 20 Sudeste 0 -- -- 84
2021-02-24 02:00:00 11.3 14 Sudeste 19 Sudeste 0 -- -- 83
2021-02-24 01:00:00 10.9 14 Sudeste 18 Sudeste 0 -- -- 85
2021-02-24 00:00:00 10.5 12 Sudeste 16 Sudeste 0 -- -- 83
2021-02-23 23:00:00 10.4 13 Sudeste 16 Sudeste 0 -- -- 81
2021-02-23 22:00:00 11.2 12 Sudeste 17 Sudeste 0 -- -- 81
2021-02-23 21:00:00 10.9 11 Sudeste 14 Sudeste 0 -- -- 68
2021-02-23 20:00:00 12.1 10 Sudeste 12 Sudeste 0 -- -- 80
2021-02-23 19:00:00 15.3 3 Noroeste 12 Noroeste 0 -- -- 77
2021-02-23 18:00:00 17.1 5 Norte 13 Norte 0 -- -- 72
2021-02-23 17:00:00 17.4 5 Noroeste 15 Noroeste 0 -- -- 69
2021-02-23 16:00:00 17.6 11 Noroeste 18 Noroeste 0 -- -- 69
2021-02-23 15:00:00 17.3 10 Oeste 18 Oeste 0 -- -- 71
2021-02-23 14:00:00 17.4 11 Noroeste 17 Noroeste 0 -- -- 69
2021-02-23 13:00:00 17.6 9 Noroeste 14 Noroeste 0 -- -- 70
2021-02-23 12:00:00 16.9 8 Noroeste 14 Noroeste 0 -- -- 69
2021-02-23 11:00:00 16.1 5 Noroeste 10 Noroeste 0 -- -- 67
2021-02-23 10:00:00 15.4 4 Nordeste 13 Sudeste 0 -- -- 63
2021-02-23 09:00:00 11.2 7 Sudeste 13 Sudeste 0 -- -- 61
2021-02-23 08:00:00 9.3 10 Sur 18 Sudeste 0 -- -- 66
2021-02-23 07:00:00 9.5 13 Sur 17 Sudeste 0 -- -- 64
2021-02-23 06:00:00 9.9 13 Sudeste 20 Sudeste 0 -- -- 74
2021-02-23 05:00:00 10.4 15 Sudeste 18 Sudeste 0 -- -- 73
2021-02-23 04:00:00 10.5 10 Sur 14 Sudeste 0 -- -- 79
2021-02-23 03:00:00 10.7 8 Sur 16 Sudeste 0 -- -- 80
2021-02-23 02:00:00 11.1 13 Sudeste 17 Sudeste 0 -- -- 83
2021-02-23 01:00:00 10.6 13 Sudeste 16 Sudeste 0 -- -- 81
2021-02-23 00:00:00 12.2 11 Sudeste 17 Sudeste 0 -- -- 82
2021-02-22 23:00:00 11.8 13 Sudeste 18 Sudeste 0 -- -- 84
2021-02-22 22:00:00 12 10 Sudeste 14 Sudeste 0 -- -- 83
2021-02-22 21:00:00 11.4 8 Sudeste 10 Sudeste 0 -- -- 82
2021-02-22 20:00:00 13.3 3 Sur 5 Sudoeste 0 -- -- 84
2021-02-22 19:00:00 14.6 3 Noroeste 12 Norte 0 -- -- 87
2021-02-22 18:00:00 15.4 7 Norte 18 Noroeste 0 -- -- 82
2021-02-22 17:00:00 16.5 9 Noroeste 22 Norte 0 -- -- 78
2021-02-22 16:00:00 17.1 9 Noroeste 15 Norte 0 -- -- 70
2021-02-22 15:00:00 17.3 9 Norte 15 Norte 0 -- -- 63
2021-02-22 14:00:00 18 7 Noroeste 14 Noroeste 0 -- -- 62
2021-02-22 13:00:00 17.9 8 Norte 12 Norte 0 -- -- 60
2021-02-22 12:00:00 17 7 Noroeste 10 Noroeste 0 -- -- 58
2021-02-22 11:00:00 16.8 5 Noroeste 11 Oeste 0 -- -- 53
2021-02-22 10:00:00 16.5 0 Calma 8 Sur 0 -- -- 49
2021-02-22 09:00:00 11.8 7 Sur 10 Sudeste 0 -- -- 72
2021-02-22 08:00:00 10.4 7 Sur 12 Sur 0 -- -- 71
2021-02-22 07:00:00 10.9 8 Sur 13 Sur 0 -- -- 64
2021-02-22 06:00:00 11.2 8 Sur 15 Sur 0 -- -- 60
2021-02-22 05:00:00 10.9 10 Sur 16 Sur 0 -- -- 63
2021-02-22 04:00:00 10.5 10 Sur 16 Sur 0 -- -- 60
2021-02-22 03:00:00 11.3 14 Sur 16 Sur 0 -- -- 59
2021-02-22 02:00:00 9.8 9 Sur 15 Sur 0 -- -- 77
2021-02-22 01:00:00 9.1 8 Sur 10 Sur 0 -- -- 81
2021-02-22 00:00:00 9.3 8 Sur 12 Sudeste 0 -- -- 79
2021-02-21 23:00:00 9.7 9 Sudeste 14 Sur 0 -- -- 70
2021-02-21 22:00:00 10.8 2 Este 15 Sur 0 -- -- 69
2021-02-21 21:00:00 11.2 9 Sur 12 Sudeste 0 -- -- 80
2021-02-21 20:00:00 12.4 4 Sur 8 Sur 0 -- -- 82
2021-02-21 19:00:00 13.4 0 Calma 11 Noroeste 0 -- -- 78
2021-02-21 18:00:00 15.1 6 Noroeste 17 Norte 0 -- -- 71
2021-02-21 17:00:00 15.7 4 Norte 17 Noroeste 0 -- -- 71
2021-02-21 16:00:00 15.2 6 Norte 17 Noroeste 0 -- -- 68
2021-02-21 15:00:00 15.6 9 Norte 17 Norte 0 -- -- 69
2021-02-21 14:00:00 16.1 6 Noroeste 20 Noroeste 0 -- -- 64
2021-02-21 13:00:00 15.5 8 Noroeste 15 Noroeste 0 -- -- 70
2021-02-21 12:00:00 15.4 5 Noroeste 13 Norte 0 -- -- 65
2021-02-21 11:00:00 14.6 7 Norte 14 Noroeste 0 -- -- 74
2021-02-21 10:00:00 14 6 Noroeste 15 Sudoeste 0 -- -- 76
2021-02-21 09:00:00 11.9 8 Sudoeste 17 Sudoeste 0 -- -- 80
2021-02-21 08:00:00 11.5 9 Sudoeste 21 Oeste 0 -- -- 89
2021-02-21 07:00:00 11.4 9 Oeste 22 Oeste 0 -- -- 96
2021-02-21 06:00:00 11.2 11 Oeste 23 Oeste 0 -- -- 98
2021-02-21 05:00:00 11.7 13 Noroeste 23 Noroeste 0 -- -- 100
2021-02-21 04:00:00 11.8 14 Noroeste 29 Noroeste 0.2 -- -- 100
2021-02-21 03:00:00 12.2 15 Noroeste 28 Noroeste 0.4 -- -- 100
2021-02-21 02:00:00 12.3 14 Oeste 34 Oeste 1.4 -- -- 100
2021-02-21 01:00:00 12.8 17 Noroeste 36 Oeste 0.8 -- -- 100
2021-02-21 00:00:00 13 19 Noroeste 43 Oeste 4.8 -- -- 100
2021-02-20 23:00:00 13 21 Oeste 57 Oeste 7.8 -- -- 100
2021-02-20 22:00:00 14.2 17 Noroeste 36 Noroeste 9.4 -- -- 100
2021-02-20 21:00:00 14.6 27 Noroeste 59 Noroeste 0.4 -- -- 98
2021-02-20 20:00:00 16.5 21 Noroeste 34 Oeste 0 -- -- 84
2021-02-20 19:00:00 16.5 20 Oeste 39 Sudoeste 0 -- -- 81
2021-02-20 18:00:00 17.3 14 Oeste 41 Noroeste 0 -- -- 73
2021-02-20 17:00:00 17 11 Oeste 37 Noroeste 0 -- -- 78
2021-02-20 16:00:00 18 15 Oeste 35 Oeste 0 -- -- 68
2021-02-20 15:00:00 19.2 15 Oeste 25 Oeste 0 -- -- 49
2021-02-20 14:00:00 20.3 9 Norte 18 Norte 0 -- -- 39
2021-02-20 13:00:00 20.8 10 Norte 23 Noroeste 0 -- -- 35
2021-02-20 12:00:00 19.7 7 Nordeste 13 Norte 0 -- -- 30
2021-02-20 11:00:00 15 3 Norte 14 Nordeste 0 -- -- 56
2021-02-20 10:00:00 16.9 4 Sudeste 12 Sudeste 0 -- -- 37
2021-02-20 09:00:00 12.3 8 Sudeste 25 Sudeste 0 -- -- 43
2021-02-20 08:00:00 10 15 Sudeste 19 Sudeste 0 -- -- 44
2021-02-20 07:00:00 11.4 7 Sudoeste 17 Sudeste 0 -- -- 42
2021-02-20 06:00:00 9.4 12 Sudeste 17 Sudeste 0 -- -- 49
2021-02-20 05:00:00 11 9 Sur 17 Sur 0 -- -- 48
2021-02-20 04:00:00 10.9 9 Sudeste 18 Sudeste 0 -- -- 47
2021-02-20 03:00:00 10 11 Sudeste 15 Sudeste 0 -- -- 61
2021-02-20 02:00:00 9 11 Sudeste 13 Sudeste 0 -- -- 70
2021-02-20 01:00:00 9.8 8 Sur 12 Sudeste 0 -- -- 72
2021-02-20 00:00:00 11.6 12 Sudeste 19 Sudeste 0 -- -- 55
2021-02-19 23:00:00 11.1 4 Sudeste 17 Sudeste 0 -- -- 65
2021-02-19 22:00:00 10.7 9 Sudeste 15 Sudeste 0 -- -- 71
2021-02-19 21:00:00 11.1 6 Sur 15 Sudeste 0 -- -- 83
2021-02-19 20:00:00 11.8 8 Sudeste 11 Sudeste 0 -- -- 77
2021-02-19 19:00:00 13.8 3 Noroeste 9 Noroeste 0 -- -- 83
2021-02-19 18:00:00 16.1 6 Noroeste 14 Norte 0 -- -- 72
2021-02-19 17:00:00 16.9 3 Oeste 16 Noroeste 0 -- -- 69
2021-02-19 16:00:00 17.2 5 Norte 17 Noroeste 0 -- -- 65
2021-02-19 15:00:00 17.9 7 Noroeste 15 Norte 0 -- -- 63
2021-02-19 14:00:00 17.8 5 Noroeste 15 Noroeste 0 -- -- 60
2021-02-19 13:00:00 17.6 8 Noroeste 14 Noroeste 0 -- -- 60
2021-02-19 12:00:00 16.4 5 Noroeste 12 Noroeste 0 -- -- 65
2021-02-19 11:00:00 16.1 7 Noroeste 13 Oeste 0 -- -- 66
2021-02-19 10:00:00 15.9 3 Oeste 8 Sudoeste 0 -- -- 41
2021-02-19 09:00:00 12.2 4 Sur 17 Sur 0 -- -- 43
2021-02-19 08:00:00 12 12 Sur 15 Sur 0 -- -- 33
2021-02-19 07:00:00 9 5 Sudeste 9 Sudeste 0 -- -- 48
2021-02-19 06:00:00 9.5 7 Sudeste 15 Sudeste 0 -- -- 42
2021-02-19 05:00:00 8.3 12 Sudeste 15 Sudeste 0 -- -- 49
2021-02-19 04:00:00 9.2 6 Sur 9 Sur 0 -- -- 51
2021-02-19 03:00:00 9.6 6 Sur 13 Sudeste 0 -- -- 43
2021-02-19 02:00:00 10 9 Sudeste 15 Sudeste 0 -- -- 41
2021-02-19 01:00:00 10.5 9 Sudeste 17 Sudeste 0 -- -- 42
2021-02-19 00:00:00 10.4 13 Sudeste 17 Sudeste 0 -- -- 43
2021-02-18 23:00:00 11 14 Sudeste 17 Sudeste 0 -- -- 42
2021-02-18 22:00:00 10.7 8 Sudeste 18 Sur 0 -- -- 46
2021-02-18 21:00:00 12 6 Sudeste 11 Sudeste 0 -- -- 43
2021-02-18 20:00:00 12.7 5 Sudeste 14 Sudeste 0 -- -- 53
2021-02-18 19:00:00 13.6 0 Calma 11 Nordeste 0 -- -- 86
2021-02-18 18:00:00 14.3 8 Nordeste 17 Nordeste 0 -- -- 83
2021-02-18 17:00:00 15.2 9 Nordeste 17 Norte 0 -- -- 80
2021-02-18 16:00:00 16.5 8 Norte 18 Norte 0 -- -- 68
2021-02-18 15:00:00 16.4 8 Norte 17 Norte 0 -- -- 72
2021-02-18 14:00:00 17.1 6 Norte 13 Norte 0 -- -- 55
2021-02-18 13:00:00 16.7 7 Noroeste 15 Norte 0 -- -- 48
2021-02-18 12:00:00 16 6 Norte 13 Norte 0 -- -- 53
2021-02-18 11:00:00 15.8 4 Noroeste 10 Noroeste 0 -- -- 56
2021-02-18 10:00:00 14.8 5 Noroeste 10 Noroeste 0 -- -- 56
2021-02-18 09:00:00 12.8 5 Sur 11 Sur 0 -- -- 54
2021-02-18 08:00:00 10.4 10 Sur 14 Sur 0 -- -- 57
2021-02-18 07:00:00 10.6 10 Sur 14 Sur 0 -- -- 52
2021-02-18 06:00:00 9.9 6 Sur 14 Sudeste 0 -- -- 50
2021-02-18 05:00:00 8.9 9 Sur 17 Sudeste 0 -- -- 44
2021-02-18 04:00:00 8.7 12 Sudeste 20 Sudeste 0 -- -- 41
2021-02-18 03:00:00 9.7 13 Sudeste 17 Sudeste 0 -- -- 40
2021-02-18 02:00:00 9.9 10 Sudeste 17 Sudeste 0 -- -- 45
2021-02-18 01:00:00 10.3 9 Sudeste 19 Sudeste 0 -- -- 45
2021-02-18 00:00:00 9.1 14 Sudeste 16 Sudeste 0 -- -- 53
2021-02-17 23:00:00 10.1 11 Sur 15 Sudeste 0 -- -- 66
2021-02-17 22:00:00 10.5 10 Sur 22 Sudeste 0 -- -- 69
2021-02-17 21:00:00 10.4 13 Sudeste 21 Sudeste 0 -- -- 63
2021-02-17 20:00:00 11.7 13 Sudeste 14 Sudeste 0 -- -- 70
2021-02-17 19:00:00 14.4 3 Noroeste 11 Noroeste 0 -- -- 72
2021-02-17 18:00:00 15.2 7 Noroeste 15 Oeste 0 -- -- 70
2021-02-17 17:00:00 17.1 10 Noroeste 20 Oeste 0 -- -- 56
2021-02-17 16:00:00 17.7 9 Noroeste 17 Noroeste 0 -- -- 57
2021-02-17 15:00:00 18.1 9 Noroeste 17 Noroeste 0 -- -- 53
2021-02-17 14:00:00 18 11 Noroeste 20 Noroeste 0 -- -- 48
2021-02-17 13:00:00 18.4 10 Noroeste 20 Noroeste 0 -- -- 36
2021-02-17 12:00:00 18.7 9 Noroeste 15 Oeste 0 -- -- 28
2021-02-17 11:00:00 18.5 5 Oeste 10 Oeste 0 -- -- 27
2021-02-17 10:00:00 17.4 2 Oeste 8 Sur 0 -- -- 22
2021-02-17 09:00:00 15.7 8 Sudoeste 51 Sudeste 0 -- -- 22
2021-02-17 08:00:00 14.5 34 Sur 57 Sudeste 0 -- -- 26
2021-02-17 07:00:00 14.7 29 Sur 45 Sudeste 0 -- -- 27
2021-02-17 06:00:00 15.3 26 Sur 46 Sur 0 -- -- 22
2021-02-17 05:00:00 15.3 25 Sudeste 54 Sur 0 -- -- 30
2021-02-17 04:00:00 15.5 13 Sudoeste 47 Sudoeste 0 -- -- 29
2021-02-17 03:00:00 15.2 8 Nordeste 42 Sudoeste 0 -- -- 38
2021-02-17 02:00:00 15.8 13 Sudoeste 42 Noroeste 0 -- -- 24
2021-02-17 01:00:00 14.1 7 Oeste 23 Norte 0 -- -- 29
2021-02-17 00:00:00 15.1 8 Sur 24 Sudoeste 0 -- -- 29
2021-02-16 23:00:00 10.7 9 Sur 15 Sudeste 0 -- -- 82
2021-02-16 22:00:00 11.1 10 Sudeste 15 Sudeste 0 -- -- 74
2021-02-16 21:00:00 11.8 6 Sur 11 Sur 0 -- -- 65
2021-02-16 20:00:00 13.9 6 Sur 21 Sudeste 0 -- -- 50
2021-02-16 19:00:00 14.7 3 Sudeste 8 Noroeste 0 -- -- 74
2021-02-16 18:00:00 17.3 6 Noroeste 10 Noroeste 0 -- -- 59
2021-02-16 17:00:00 19.1 7 Noroeste 14 Noroeste 0 -- -- 44
2021-02-16 16:00:00 20 9 Norte 15 Noroeste 0 -- -- 38
2021-02-16 15:00:00 20.2 9 Noroeste 16 Noroeste 0 -- -- 32
2021-02-16 14:00:00 19.4 9 Noroeste 15 Noroeste 0 -- -- 35
2021-02-16 13:00:00 19.4 6 Noroeste 20 Sudoeste 0 -- -- 41
2021-02-16 12:00:00 18.8 8 Oeste 42 Sur 0 -- -- 40
2021-02-16 11:00:00 18.2 21 Sur 42 Sur 0 -- -- 30
2021-02-16 10:00:00 18.2 12 Sur 25 Sur 0 -- -- 29
2021-02-16 09:00:00 16.2 13 Sur 35 Sudeste 0 -- -- 31
2021-02-16 08:00:00 14.7 23 Sudeste 30 Sudeste 0 -- -- 27
2021-02-16 07:00:00 15.6 22 Sudeste 39 Sudeste 0 -- -- 29
2021-02-16 06:00:00 16.6 23 Sudeste 39 Sudeste 0 -- -- 29
2021-02-16 05:00:00 16.2 20 Sudeste 32 Sudeste 0 -- -- 34
2021-02-16 04:00:00 14.9 15 Sudeste 25 Sudeste 0 -- -- 31
2021-02-16 03:00:00 15.2 19 Sudeste 24 Sudeste 0 -- -- 35
2021-02-16 02:00:00 14.6 12 Sur 25 Sudeste 0 -- -- 34
2021-02-16 01:00:00 15.3 20 Sudeste 23 Sudeste 0 -- -- 33
2021-02-16 00:00:00 13.4 6 Sur 14 Sudeste 0 -- -- 43
2021-02-15 23:00:00 14.2 11 Sur 20 Sur 0 -- -- 54
2021-02-15 22:00:00 14.5 10 Sur 15 Sur 0 -- -- 55
2021-02-15 21:00:00 13.8 9 Sur 13 Sur 0 -- -- 57
2021-02-15 20:00:00 14.4 5 Sur 11 Sur 0 -- -- 56
2021-02-15 19:00:00 17.5 4 Sur 8 Norte 0 -- -- 51
2021-02-15 18:00:00 21.1 5 Norte 12 Norte 0 -- -- 43
2021-02-15 17:00:00 21.9 4 Norte 13 Noroeste 0 -- -- 33
2021-02-15 16:00:00 21.4 8 Noroeste 17 Noroeste 0 -- -- 47
2021-02-15 15:00:00 21.4 9 Noroeste 40 Sur 0 -- -- 43
2021-02-15 14:00:00 23 27 Sur 50 Sudoeste 0 -- -- 24
2021-02-15 13:00:00 23.2 22 Sur 47 Sur 0 -- -- 24
2021-02-15 12:00:00 23.9 9 Nordeste 29 Sudoeste 0 -- -- 21
2021-02-15 11:00:00 23.6 8 Este 32 Noroeste 0 -- -- 20
2021-02-15 10:00:00 22.9 8 Noroeste 19 Oeste 0 -- -- 18
2021-02-15 09:00:00 19.5 10 Sudeste 25 Sudoeste 0 -- -- 25
2021-02-15 08:00:00 17.9 11 Sudeste 24 Sur 0 -- -- 26
2021-02-15 07:00:00 19.4 13 Sur 28 Sur 0 -- -- 21
2021-02-15 06:00:00 16.3 17 Sudeste 24 Sudeste 0 -- -- 27
2021-02-15 05:00:00 15.8 10 Sur 14 Sur 0 -- -- 30
2021-02-15 04:00:00 12.1 5 Sudoeste 10 Oeste 0 -- -- 58
2021-02-15 03:00:00 14.5 4 Sur 17 Sur 0 -- -- 38
2021-02-15 02:00:00 14 5 Sudeste 12 Sudeste 0 -- -- 38
2021-02-15 01:00:00 10.2 3 Sudoeste 14 Sudeste 0 -- -- 94
2021-02-15 00:00:00 10.7 5 Sudoeste 9 Sudoeste 0 -- -- 89
2021-02-14 23:00:00 11 2 Sudeste 12 Sur 0 -- -- 69
2021-02-14 22:00:00 12 8 Sudoeste 15 Sudoeste 0 -- -- 95
2021-02-14 21:00:00 12.3 7 Sur 12 Sur 0 -- -- 94
2021-02-14 20:00:00 12.7 6 Sur 9 Sur 0 -- -- 93
2021-02-14 19:00:00 13.8 4 Sudoeste 9 Sudoeste 0 -- -- 93
2021-02-14 18:00:00 14.6 4 Noroeste 9 Noroeste 0 -- -- 91
2021-02-14 17:00:00 15.9 5 Noroeste 10 Noroeste 0 -- -- 86
2021-02-14 16:00:00 15.8 5 Noroeste 14 Oeste 0 -- -- 87
2021-02-14 15:00:00 17 8 Noroeste 15 Noroeste 0 -- -- 80
2021-02-14 14:00:00 17.4 8 Noroeste 13 Norte 0 -- -- 77
2021-02-14 13:00:00 17 6 Noroeste 13 Noroeste 0 -- -- 78
2021-02-14 12:00:00 16.4 5 Noroeste 15 Oeste 0 -- -- 78
2021-02-14 11:00:00 14.7 8 Oeste 14 Oeste 0 -- -- 82
2021-02-14 10:00:00 13.6 5 Oeste 13 Sudoeste 0 -- -- 83
2021-02-14 09:00:00 10.8 9 Sudoeste 15 Sur 0 -- -- 80
2021-02-14 08:00:00 10 11 Sur 14 Sudoeste 0 -- -- 90
2021-02-14 07:00:00 9.8 10 Sur 17 Sudoeste 0 -- -- 89
2021-02-14 06:00:00 10.1 10 Sur 14 Sur 0 -- -- 81
2021-02-14 05:00:00 8.9 9 Sur 13 Sur 0 -- -- 80
2021-02-14 04:00:00 9.1 9 Sur 14 Sur 0 -- -- 80
2021-02-14 03:00:00 10 9 Sur 13 Sur 0 -- -- 83
2021-02-14 02:00:00 10.4 11 Sur 14 Sur 0 -- -- 87
2021-02-14 01:00:00 9.3 9 Sur 18 Sudoeste 0 -- -- 85
2021-02-14 00:00:00 10.2 10 Sur 12 Sur 0 -- -- 88
2021-02-13 23:00:00 9.7 9 Sur 17 Sur 0 -- -- 90
2021-02-13 22:00:00 10.5 10 Sur 14 Sur 0 -- -- 90
2021-02-13 21:00:00 10.9 8 Sudeste 18 Sudeste 0 -- -- 88
2021-02-13 20:00:00 12.5 10 Sudeste 21 Este 0 -- -- 83
2021-02-13 19:00:00 13.4 10 Este 17 Este 0 -- -- 85
2021-02-13 18:00:00 14.1 8 Nordeste 19 Norte 0 -- -- 85
2021-02-13 17:00:00 14.3 10 Nordeste 17 Norte 0 -- -- 86
2021-02-13 16:00:00 14.7 8 Norte 15 Nordeste 0 -- -- 84
2021-02-13 15:00:00 15.1 7 Norte 16 Norte 0 -- -- 84
2021-02-13 14:00:00 15.4 12 Nordeste 17 Nordeste 0 -- -- 83
2021-02-13 13:00:00 15.5 7 Nordeste 18 Nordeste 0 -- -- 82
2021-02-13 12:00:00 15 11 Norte 18 Norte 0 -- -- 87
2021-02-13 07:00:00 9.3 9 Sur 14 Sur 0 -- -- 81
2021-02-13 06:00:00 9.9 8 Sur 15 Sudoeste 0 -- -- 77
2021-02-13 05:00:00 11.1 13 Sur 20 Sur 0 -- -- 76
2021-02-13 04:00:00 11.3 12 Sur 16 Sur 0 -- -- 75
2021-02-13 03:00:00 12.3 14 Sudeste 18 Sudeste 0 -- -- 81
2021-02-13 02:00:00 13.1 2 Este 12 Sudeste 0 -- -- 85
2021-02-13 01:00:00 13 7 Sudeste 18 Sudeste 0 -- -- 88
2021-02-13 00:00:00 12.4 10 Sudeste 17 Sudeste 0 -- -- 86
2021-02-12 23:00:00 13.2 8 Sudeste 15 Este 0 -- -- 89
2021-02-12 22:00:00 13.8 4 Este 11 Este 0.4 -- -- 94
2021-02-12 21:00:00 14.1 4 Sur 15 Nordeste 0 -- -- 87
2021-02-12 20:00:00 14.8 5 Sudeste 11 Sudeste 0 -- -- 78
2021-02-12 19:00:00 14.6 5 Este 13 Nordeste 0 -- -- 77
2021-02-12 18:00:00 15.1 10 Nordeste 25 Nordeste 0 -- -- 72
2021-02-12 17:00:00 16.4 16 Nordeste 24 Norte 0 -- -- 73
2021-02-12 16:00:00 16.4 16 Nordeste 27 Nordeste 0 -- -- 71
2021-02-12 15:00:00 16.7 16 Nordeste 27 Nordeste 0 -- -- 68
2021-02-12 14:00:00 16.6 15 Nordeste 26 Norte 0 -- -- 71
2021-02-12 13:00:00 15.8 10 Norte 20 Norte 0 -- -- 84
2021-02-12 12:00:00 16.5 10 Nordeste 20 Norte 0 -- -- 79
2021-02-12 11:00:00 16 6 Nordeste 18 Este 0 -- -- 73
2021-02-12 10:00:00 13.7 8 Este 16 Nordeste 0 -- -- 84
2021-02-12 09:00:00 13.6 10 Sur 13 Sur 0 -- -- 75
2021-02-12 08:00:00 11.7 9 Sudeste 14 Sudeste 0 -- -- 85
2021-02-12 07:00:00 12.2 12 Sudeste 19 Sudeste 0 -- -- 79
2021-02-12 06:00:00 11.7 12 Sudeste 15 Sudeste 0 -- -- 81
2021-02-12 05:00:00 13 9 Sudeste 13 Sudeste 0 -- -- 82
2021-02-12 04:00:00 12.9 8 Sudeste 12 Sudeste 0 -- -- 85
2021-02-12 03:00:00 12.9 5 Sudeste 12 Sudeste 0 -- -- 85
2021-02-12 02:00:00 13.1 4 Este 17 Este 0 -- -- 89
2021-02-12 01:00:00 12.4 6 Sudeste 11 Nordeste 0.2 -- -- 87
2021-02-12 00:00:00 13.6 7 Sudeste 13 Sudeste 0 -- -- 83
2021-02-11 23:00:00 13 5 Sudeste 13 Sudeste 0 -- -- 90
2021-02-11 22:00:00 13.5 9 Sur 19 Sur 0 -- -- 80
2021-02-11 21:00:00 12.3 14 Sudeste 19 Sudeste 0 -- -- 79
2021-02-11 20:00:00 12.3 12 Sudeste 14 Sudeste 0 -- -- 79
2021-02-11 19:00:00 14.4 4 Noroeste 10 Norte 0 -- -- 84
2021-02-11 18:00:00 16.5 4 Norte 15 Norte 0 -- -- 69
2021-02-11 17:00:00 16.6 7 Noroeste 15 Norte 0 -- -- 75
2021-02-11 16:00:00 16 10 Norte 15 Norte 0 -- -- 73
2021-02-11 15:00:00 16.2 7 Noroeste 17 Noroeste 0 -- -- 78
2021-02-11 14:00:00 16.6 9 Norte 19 Norte 0 -- -- 72
2021-02-11 13:00:00 16.5 6 Noroeste 17 Noroeste 0 -- -- 72
2021-02-11 12:00:00 16.7 6 Noroeste 11 Noroeste 0 -- -- 67
2021-02-11 11:00:00 15.8 5 Noroeste 10 Noroeste 0 -- -- 70
2021-02-11 10:00:00 14.7 0 Calma 20 Sudeste 0 -- -- 69
2021-02-11 09:00:00 9.7 14 Sudeste 17 Sur 0 -- -- 78
2021-02-11 08:00:00 8.6 13 Sur 20 Sur 0 -- -- 81
2021-02-11 07:00:00 10 12 Sur 17 Sur 0 -- -- 84
2021-02-11 06:00:00 11.2 11 Sur 21 Sur 0 -- -- 82
2021-02-11 05:00:00 10.9 13 Sur 20 Sur 0 -- -- 82
2021-02-11 04:00:00 10.1 12 Sur 19 Sur 0 -- -- 84
2021-02-11 03:00:00 10.3 11 Sur 15 Sur 0 -- -- 85
2021-02-11 02:00:00 11.4 13 Sur 15 Sur 0 -- -- 80
2021-02-11 01:00:00 12.3 12 Sur 14 Sur 0 -- -- 79
2021-02-11 00:00:00 12.9 10 Sur 14 Sur 0 -- -- 77
2021-02-10 23:00:00 11.3 9 Sur 15 Sudeste 0 -- -- 85
2021-02-10 22:00:00 10.6 10 Sur 16 Sudeste 0 -- -- 84
2021-02-10 21:00:00 10.7 12 Sudeste 13 Sur 0 -- -- 86
2021-02-10 20:00:00 13.2 5 Sur 9 Sur 0 -- -- 81
2021-02-10 19:00:00 14.1 3 Noroeste 9 Noroeste 0 -- -- 81
2021-02-10 18:00:00 16.8 5 Noroeste 10 Noroeste 0 -- -- 64
2021-02-10 17:00:00 16.5 7 Norte 14 Noroeste 0 -- -- 70
2021-02-10 16:00:00 17 8 Noroeste 15 Noroeste 0 -- -- 72
2021-02-10 15:00:00 17.1 8 Noroeste 14 Noroeste 0 -- -- 69
2021-02-10 14:00:00 16.8 8 Norte 14 Norte 0 -- -- 71
2021-02-10 13:00:00 16.4 6 Noroeste 12 Noroeste 0 -- -- 72
2021-02-10 12:00:00 15.7 7 Noroeste 12 Norte 0 -- -- 74
2021-02-10 11:00:00 15.7 5 Norte 9 Norte 0 -- -- 73
2021-02-10 10:00:00 14.6 2 Sudeste 15 Sudeste 0 -- -- 73
2021-02-10 09:00:00 9.2 12 Sudeste 22 Sudeste 0 -- -- 77
2021-02-10 08:00:00 8.6 12 Sur 17 Sudeste 0 -- -- 75
2021-02-10 07:00:00 8.6 10 Sur 22 Sur 0 -- -- 77
2021-02-10 06:00:00 8.5 16 Sur 20 Sur 0 -- -- 77
2021-02-10 05:00:00 8.6 12 Sur 15 Sudeste 0 -- -- 73
2021-02-10 04:00:00 9.1 10 Sur 15 Sudeste 0 -- -- 72
2021-02-10 03:00:00 9 14 Sudeste 18 Sudeste 0 -- -- 72
2021-02-10 02:00:00 9.5 16 Sudeste 19 Sudeste 0 -- -- 76
2021-02-10 01:00:00 9.5 14 Sudeste 19 Sudeste 0 -- -- 78
2021-02-10 00:00:00 9.9 12 Sudeste 17 Sudeste 0 -- -- 79
2021-02-09 23:00:00 10.1 13 Sudeste 15 Sudeste 0 -- -- 81
2021-02-09 22:00:00 11.7 12 Sur 15 Sur 0 -- -- 76
2021-02-09 21:00:00 11.6 10 Sudeste 13 Sudeste 0 -- -- 81
2021-02-09 20:00:00 13.5 0 Calma 5 Sudoeste 0 -- -- 87
2021-02-09 19:00:00 13.8 0 Calma 9 Norte 0 -- -- 88
2021-02-09 18:00:00 15.2 5 Noroeste 8 Noroeste 0 -- -- 82
2021-02-09 17:00:00 14.9 6 Norte 17 Norte 0 -- -- 81
2021-02-09 16:00:00 16 8 Norte 15 Norte 0 -- -- 77
2021-02-09 15:00:00 16.3 8 Noroeste 16 Norte 0 -- -- 76
2021-02-09 14:00:00 16.7 6 Noroeste 13 Noroeste 0 -- -- 67
2021-02-09 13:00:00 16.6 6 Noroeste 12 Noroeste 0 -- -- 69
2021-02-09 12:00:00 15.7 5 Norte 12 Noroeste 0 -- -- 71
2021-02-09 11:00:00 15.1 6 Noroeste 11 Norte 0 -- -- 73
2021-02-09 10:00:00 13.9 5 Sudoeste 15 Sur 0 -- -- 72
2021-02-09 09:00:00 11 10 Sur 19 Sur 0 -- -- 82
2021-02-09 08:00:00 11.2 10 Sur 15 Sur 0 -- -- 81
2021-02-09 07:00:00 11.5 9 Sur 13 Sur 0 -- -- 81
2021-02-09 06:00:00 11.3 9 Sur 13 Sur 0 -- -- 83
2021-02-09 05:00:00 11 9 Sur 15 Sur 0 -- -- 84
2021-02-09 04:00:00 9.6 8 Sur 17 Sudeste 0 -- -- 91
2021-02-09 03:00:00 8.5 10 Sudeste 15 Sudeste 0 -- -- 89
2021-02-09 02:00:00 8.9 11 Sur 17 Sur 0 -- -- 87
2021-02-09 01:00:00 10.1 9 Sur 14 Sur 0 -- -- 83
2021-02-09 00:00:00 11.7 5 Sur 13 Sur 0 -- -- 81
2021-02-08 23:00:00 12.5 8 Sur 12 Sur 0 -- -- 81
2021-02-08 22:00:00 12.4 8 Sur 16 Sur 0 -- -- 80
2021-02-08 21:00:00 11.9 8 Sur 15 Sudeste 0 -- -- 86
2021-02-08 20:00:00 12.3 8 Sur 10 Sur 0 -- -- 83
2021-02-08 19:00:00 13.3 3 Noroeste 10 Noroeste 0 -- -- 89
2021-02-08 18:00:00 14 5 Norte 10 Norte 0 -- -- 85
2021-02-08 17:00:00 14.3 6 Noroeste 11 Noroeste 0 -- -- 85
2021-02-08 16:00:00 15.1 4 Noroeste 14 Noroeste 0 -- -- 81
2021-02-08 15:00:00 15.2 5 Norte 12 Norte 0 -- -- 81
2021-02-08 14:00:00 14.3 7 Norte 12 Nordeste 0 -- -- 82
2021-02-08 13:00:00 14.2 6 Noroeste 10 Noroeste 0 -- -- 84
2021-02-08 12:00:00 13.5 5 Noroeste 13 Nordeste 0 -- -- 87
2021-02-08 11:00:00 13.6 6 Norte 12 Norte 0 -- -- 84
2021-02-08 10:00:00 13.8 2 Norte 13 Sudeste 0 -- -- 78
2021-02-08 09:00:00 10.4 11 Sudeste 16 Sudeste 0 -- -- 82
2021-02-08 08:00:00 10.6 9 Sudeste 14 Sudeste 0 -- -- 88
2021-02-08 07:00:00 10.4 11 Sudeste 14 Sudeste 0 -- -- 89
2021-02-08 06:00:00 9.6 15 Sudeste 18 Sudeste 0 -- -- 89
2021-02-08 05:00:00 9.5 11 Sudeste 13 Sudeste 0 -- -- 88
2021-02-08 04:00:00 7.9 8 Sur 14 Sudeste 0 -- -- 89
2021-02-08 03:00:00 8.1 9 Sur 14 Sudeste 0 -- -- 91
2021-02-08 02:00:00 8.3 10 Sudeste 16 Sudeste 0 -- -- 88
2021-02-08 01:00:00 8.8 11 Sudeste 16 Sudeste 0 -- -- 88
2021-02-08 00:00:00 10.9 12 Sudeste 16 Sur 0 -- -- 85
2021-02-07 23:00:00 10.8 10 Sudeste 14 Sudeste 0 -- -- 85
2021-02-07 22:00:00 11.2 10 Sur 14 Sur 0 -- -- 85
2021-02-07 21:00:00 10.4 12 Sudeste 15 Sudeste 0 -- -- 87
2021-02-07 20:00:00 11.8 8 Sur 10 Sur 0 -- -- 83
2021-02-07 19:00:00 12.4 3 Nordeste 7 Norte 0 -- -- 91
2021-02-07 18:00:00 13.1 4 Noroeste 9 Noroeste 0 -- -- 88
2021-02-07 17:00:00 13.2 7 Norte 15 Norte 0 -- -- 82
2021-02-07 16:00:00 14.1 3 Norte 12 Noroeste 0 -- -- 81
2021-02-07 15:00:00 13.9 6 Noroeste 12 Noroeste 0 -- -- 80
2021-02-07 14:00:00 13.9 6 Noroeste 12 Noroeste 0 -- -- 80
2021-02-07 13:00:00 13.6 6 Noroeste 14 Norte 0 -- -- 79
2021-02-07 12:00:00 14.8 7 Noroeste 11 Noroeste 0 -- -- 74
2021-02-07 11:00:00 13.9 5 Noroeste 9 Noroeste 0 -- -- 73
2021-02-07 10:00:00 13.1 4 Sur 15 Sur 0 -- -- 67
2021-02-07 09:00:00 9.6 13 Sur 16 Sudeste 0 -- -- 79
2021-02-07 08:00:00 8.4 12 Sur 18 Sur 0 -- -- 84
2021-02-07 07:00:00 9.1 13 Sur 17 Sur 0 -- -- 80
2021-02-07 06:00:00 8.8 11 Sur 19 Sur 0 -- -- 81
2021-02-07 05:00:00 9.4 13 Sur 16 Sur 0 -- -- 81
2021-02-07 04:00:00 10 13 Sur 15 Sur 0 -- -- 81
2021-02-07 03:00:00 9.8 10 Sur 12 Sudoeste 0 -- -- 85
2021-02-07 02:00:00 10.5 9 Sur 13 Sudoeste 0 -- -- 83
2021-02-07 01:00:00 10.6 7 Sudoeste 15 Sudoeste 0 -- -- 81
2021-02-07 00:00:00 10.1 12 Sur 15 Sur 0 -- -- 80
2021-02-06 23:00:00 10.8 10 Sudoeste 18 Oeste 0 -- -- 79
2021-02-06 22:00:00 11.3 6 Oeste 23 Oeste 0 -- -- 81
2021-02-06 21:00:00 11.2 9 Oeste 25 Oeste 0 -- -- 83
2021-02-06 20:00:00 10.9 11 Oeste 19 Oeste 0 -- -- 87
2021-02-06 19:00:00 11 8 Noroeste 20 Oeste 2 -- -- 91
2021-02-06 18:00:00 11.6 12 Noroeste 30 Noroeste 0 -- -- 90
2021-02-06 17:00:00 12.8 14 Noroeste 25 Noroeste 0 -- -- 77
2021-02-06 16:00:00 13.6 15 Noroeste 24 Noroeste 0 -- -- 78
2021-02-06 15:00:00 11.4 10 Noroeste 26 Norte 0 -- -- 94
2021-02-06 14:00:00 13.5 17 Noroeste 25 Noroeste 0 -- -- 74
2021-02-06 13:00:00 12.2 14 Oeste 30 Noroeste 0.8 -- -- 80
2021-02-06 12:00:00 12.6 13 Oeste 25 Oeste 0 -- -- 74
2021-02-06 11:00:00 11.2 10 Oeste 32 Oeste 1 -- -- 86
2021-02-06 10:00:00 10.4 15 Noroeste 29 Oeste 0.4 -- -- 88
2021-02-06 09:00:00 10.4 13 Oeste 24 Oeste 0.2 -- -- 81
2021-02-06 08:00:00 9.2 6 Oeste 22 Oeste 0.8 -- -- 84
2021-02-06 07:00:00 9.4 8 Oeste 29 Oeste 0.2 -- -- 86
2021-02-06 06:00:00 10.3 12 Oeste 30 Sudoeste 0 -- -- 78
2021-02-06 05:00:00 9.6 11 Oeste 24 Oeste 0 -- -- 80
2021-02-06 04:00:00 9.8 9 Oeste 21 Noroeste 0 -- -- 75
2021-02-06 03:00:00 9.8 12 Noroeste 30 Oeste 0 -- -- 78
2021-02-06 02:00:00 9 7 Oeste 23 Nordeste 1.8 -- -- 82
2021-02-06 01:00:00 8.6 9 Sudoeste 33 Oeste 0.6 -- -- 84
2021-02-06 00:00:00 8.8 8 Oeste 22 Oeste 0.4 -- -- 84
2021-02-05 23:00:00 8.5 15 Noroeste 28 Noroeste 3 -- -- 96
2021-02-05 22:00:00 8.8 10 Oeste 19 Oeste 1 -- -- 87
2021-02-05 21:00:00 8.2 5 Oeste 14 Oeste 1.8 -- -- 93
2021-02-05 20:00:00 8.1 4 Oeste 13 Sudoeste 1.8 -- -- 97
2021-02-05 19:00:00 8.1 2 Oeste 38 Norte 18.6 -- -- 100
2021-02-05 18:00:00 9.3 12 Oeste 19 Oeste 0.8 -- -- 90
2021-02-05 17:00:00 8.9 15 Norte 25 Nordeste 2.6 -- -- 93
2021-02-05 16:00:00 9.3 10 Sudoeste 20 Sudoeste 0.2 -- -- 86
2021-02-05 15:00:00 9.2 11 Oeste 20 Oeste 0 -- -- 86
2021-02-05 14:00:00 9.2 8 Oeste 20 Oeste 0.4 -- -- 91
2021-02-05 13:00:00 7.5 8 Oeste 24 Oeste 5.8 -- -- 98
2021-02-05 12:00:00 8.6 8 Noroeste 25 Noroeste 1.2 -- -- 93
2021-02-05 11:00:00 7.6 9 Sudoeste 25 Norte 4.6 -- -- 94
2021-02-05 10:00:00 7.8 13 Oeste 30 Oeste 1.4 -- -- 93
2021-02-05 09:00:00 8.4 10 Oeste 32 Oeste 2.2 -- -- 86
2021-02-05 08:00:00 8.1 14 Oeste 30 Oeste 1.2 -- -- 87
2021-02-05 07:00:00 8.2 9 Oeste 27 Oeste 0.2 -- -- 80
2021-02-05 06:00:00 7.8 12 Oeste 27 Oeste 0.8 -- -- 85
2021-02-05 05:00:00 7.3 13 Oeste 37 Oeste 2.8 -- -- 88
2021-02-05 04:00:00 8.8 10 Oeste 24 Oeste 0.2 -- -- 76
2021-02-05 03:00:00 8.8 12 Oeste 26 Oeste 0 -- -- 75
2021-02-05 02:00:00 8.5 15 Oeste 31 Oeste 0 -- -- 84
2021-02-05 01:00:00 7.8 8 Oeste 25 Norte 2.2 -- -- 95
2021-02-05 00:00:00 8.1 18 Noroeste 40 Oeste 0.2 -- -- 92
2021-02-04 23:00:00 9.2 13 Oeste 27 Oeste 0 -- -- 75
2021-02-04 22:00:00 9.9 7 Noroeste 38 Noroeste 0 -- -- 75
2021-02-04 21:00:00 10.4 17 Noroeste 34 Noroeste 2.2 -- -- 84
2021-02-04 20:00:00 10.7 10 Oeste 42 Noroeste 0 -- -- 78
2021-02-04 19:00:00 11.2 19 Noroeste 38 Oeste 0 -- -- 81
2021-02-04 18:00:00 10.5 13 Norte 40 Noroeste 0 -- -- 95
2021-02-04 17:00:00 11.8 23 Noroeste 37 Noroeste 0 -- -- 83
2021-02-04 16:00:00 11.5 20 Noroeste 36 Norte 0 -- -- 89
2021-02-04 15:00:00 11.6 18 Noroeste 38 Oeste 1.6 -- -- 87
2021-02-04 14:00:00 12.1 15 Oeste 33 Noroeste 0 -- -- 85
2021-02-04 13:00:00 11.2 15 Noroeste 33 Sudoeste 0.8 -- -- 97
2021-02-04 12:00:00 10.5 12 Oeste 31 Noroeste 4.8 -- -- 92
2021-02-04 11:00:00 11.4 13 Oeste 26 Oeste 0.4 -- -- 89
2021-02-04 10:00:00 10.6 10 Sudoeste 30 Sudoeste 2.4 -- -- 89
2021-02-04 09:00:00 10 16 Oeste 31 Sudoeste 3.8 -- -- 98
2021-02-04 08:00:00 10.5 14 Sudoeste 31 Sudoeste 2 -- -- 93
2021-02-04 07:00:00 10.5 9 Sudoeste 13 Sudoeste 6.8 -- -- 100
2021-02-04 06:00:00 10.4 6 Oeste 22 Noroeste 8.6 -- -- 100
2021-02-04 05:00:00 11.3 11 Oeste 19 Oeste 9.4 -- -- 100
2021-02-04 04:00:00 11.6 4 Noroeste 17 Sudoeste 4.8 -- -- 99
2021-02-04 03:00:00 11.6 5 Sudoeste 9 Sudoeste 1.2 -- -- 97
2021-02-04 02:00:00 12.6 2 Noroeste 13 Sur 0 -- -- 88
2021-02-04 01:00:00 11.7 0 Calma 19 Sudeste 0 -- -- 90
2021-02-04 00:00:00 12.4 13 Sur 24 Sur 0 -- -- 87
2021-02-03 23:00:00 11.9 8 Sur 12 Sur 0 -- -- 89
2021-02-03 22:00:00 10.8 4 Este 8 Sudeste 0 -- -- 89
2021-02-03 21:00:00 12.6 4 Oeste 6 Oeste 0 -- -- 93
2021-02-03 20:00:00 12.5 2 Sur 4 Sur 0 -- -- 94
2021-02-03 19:00:00 12.7 0 Calma 10 Norte 0 -- -- 92
2021-02-03 18:00:00 13.3 4 Noroeste 7 Noroeste 0 -- -- 88
2021-02-03 17:00:00 13.8 3 Noroeste 9 Noroeste 0 -- -- 85
2021-02-03 16:00:00 13.8 4 Noroeste 11 Noroeste 0 -- -- 84
2021-02-03 15:00:00 14.4 4 Noroeste 13 Noroeste 0 -- -- 81
2021-02-03 14:00:00 14.6 6 Norte 12 Norte 0 -- -- 80
2021-02-03 13:00:00 14 6 Norte 17 Noroeste 0 -- -- 82
2021-02-03 12:00:00 14.6 7 Norte 13 Norte 0 -- -- 80
2021-02-03 11:00:00 15 5 Noroeste 13 Norte -- -- -- 76
2021-02-03 10:00:00 12.9 4 Nordeste 9 Norte 0 -- -- 85
2021-02-03 09:00:00 11.5 4 Sudeste 8 Sudeste 0 -- -- 90
2021-02-03 08:00:00 10.5 6 Sudeste 13 Sudeste 0 -- -- 90
2021-02-03 07:00:00 9.4 8 Este 11 Este 0 -- -- 80
2021-02-03 06:00:00 11.1 8 Sudeste 12 Sudeste 0 -- -- 89
2021-02-03 05:00:00 11.3 7 Sur 12 Sur 0 -- -- 90
2021-02-03 04:00:00 11.1 7 Sudeste 13 Sudeste 0 -- -- 90
2021-02-03 03:00:00 11.5 6 Sudeste 11 Sur 0 -- -- 88
2021-02-03 02:00:00 11.4 5 Sur 9 Sur 0 -- -- 92
2021-02-03 01:00:00 12.5 5 Sur 9 Sudoeste 0 -- -- 93
2021-02-03 00:00:00 11.6 5 Sur 10 Sur 0 -- -- 92
2021-02-02 23:00:00 11.3 4 Sur 8 Sudeste 0 -- -- 88
2021-02-02 22:00:00 12.2 5 Sudeste 8 Sudeste 0 -- -- 86
2021-02-02 21:00:00 14.2 0 Calma 6 Sur 0 -- -- 94
2021-02-02 20:00:00 14.1 4 Noroeste 8 Noroeste 0 -- -- 95
2021-02-02 19:00:00 14.6 3 Noroeste 11 Sudoeste 0 -- -- 94
2021-02-02 18:00:00 15.3 4 Noroeste 11 Noroeste 0 -- -- 90
2021-02-02 17:00:00 18.7 6 Noroeste 12 Noroeste 0 -- -- 76
2021-02-02 16:00:00 19.3 3 Noroeste 11 Oeste 0 -- -- 76
2021-02-02 15:00:00 17.6 6 Noroeste 11 Noroeste 0 -- -- 82
2021-02-02 14:00:00 17.4 5 Norte 12 Norte 0 -- -- 82
2021-02-02 13:00:00 18 6 Noroeste 12 Noroeste 0 -- -- 77
2021-02-02 12:00:00 16.4 5 Noroeste 12 Noroeste 0 -- -- 84
2021-02-02 11:00:00 15.8 5 Noroeste 10 Noroeste 0 -- -- 85
2021-02-02 10:00:00 15.7 2 Norte 4 Sudeste 0 -- -- 81
2021-02-02 09:00:00 12 0 Calma 5 Sudeste 0 -- -- 78
2021-02-02 08:00:00 12.5 7 Sur 11 Sudeste 0 -- -- 49
2021-02-02 07:00:00 11.9 3 Sudeste 9 Sudeste 0 -- -- 51
2021-02-02 06:00:00 12 2 Sur 11 Sudoeste 0 -- -- 61
2021-02-02 05:00:00 14.2 9 Sudoeste 12 Sudoeste 0 -- -- 47
2021-02-02 04:00:00 11.4 2 Sur 10 Sur 0 -- -- 73
2021-02-02 03:00:00 11.3 4 Este 14 Sudeste 0 -- -- 73
2021-02-02 02:00:00 11.4 6 Sudeste 11 Sudeste 0 -- -- 86
2021-02-02 01:00:00 12.8 6 Sudeste 9 Sudeste 0 -- -- 89
2021-02-02 00:00:00 11.4 3 Sur 8 Sur 0 -- -- 81
2021-02-01 23:00:00 11.7 4 Sur 9 Sudeste 0 -- -- 78
2021-02-01 22:00:00 12.3 5 Sur 12 Sudeste 0 -- -- 90
2021-02-01 21:00:00 13.4 4 Sur 8 Sur 0 -- -- 90
2021-02-01 20:00:00 13.7 3 Sur 8 Sur 0 -- -- 82
2021-02-01 19:00:00 15 3 Sur 6 Noroeste 0 -- -- 91
2021-02-01 18:00:00 17.8 3 Noroeste 10 Noroeste 0 -- -- 83
2021-02-01 17:00:00 18.9 5 Noroeste 11 Noroeste 0 -- -- 80
2021-02-01 16:00:00 18.7 6 Noroeste 13 Noroeste 0 -- -- 79
2021-02-01 15:00:00 19.3 5 Noroeste 17 Oeste 0 -- -- 76
2021-02-01 14:00:00 19.1 9 Noroeste 17 Noroeste 0 -- -- 75
2021-02-01 13:00:00 19.9 8 Noroeste 12 Noroeste 0 -- -- 72
2021-02-01 12:00:00 18.7 6 Noroeste 14 Noroeste 0 -- -- 69
2021-02-01 11:00:00 18.3 3 Noroeste 10 Oeste 0 -- -- 65
2021-02-01 10:00:00 19.1 2 Norte 9 Sudoeste 0 -- -- 45
2021-02-01 09:00:00 15.9 5 Sudoeste 14 Sudeste 0 -- -- 48
2021-02-01 08:00:00 19.4 7 Este 24 Sudeste 0 -- -- 36
2021-02-01 07:00:00 17.7 3 Este 22 Sudeste 0 -- -- 43
2021-02-01 06:00:00 16.2 3 Oeste 8 Oeste 0 -- -- 45
2021-02-01 05:00:00 16 4 Oeste 8 Sur 0 -- -- 45
2021-02-01 04:00:00 14.7 4 Sur 10 Sudeste 0 -- -- 51
2021-02-01 03:00:00 13.4 3 Sur 9 Sudeste 0 -- -- 56
2021-02-01 02:00:00 12.7 4 Sur 9 Sudeste 0 -- -- 60
2021-02-01 01:00:00 13 3 Sudoeste 6 Sudeste 0 -- -- 63
2021-02-01 00:00:00 13.2 2 Sur 7 Sur 0 -- -- 63
2021-01-31 23:00:00 12.1 4 Sur 8 Sudeste 0 -- -- 66
2021-01-31 22:00:00 12.3 2 Sudoeste 7 Sudeste 0 -- -- 69
2021-01-31 21:00:00 12.9 5 Este 9 Sudeste 0 -- -- 71
2021-01-31 20:00:00 12.5 0 Calma 4 Sudeste 0 -- -- 88
2021-01-31 19:00:00 14.2 0 Calma 10 Oeste 0 -- -- 88
2021-01-31 18:00:00 16.8 4 Noroeste 14 Norte 0 -- -- 81
2021-01-31 17:00:00 16.7 8 Norte 14 Norte 0 -- -- 80
2021-01-31 16:00:00 17.3 8 Norte 14 Norte 0 -- -- 78
2021-01-31 15:00:00 17.3 9 Norte 15 Nordeste 0 -- -- 78
2021-01-31 14:00:00 17.1 10 Norte 18 Norte 0 -- -- 76
2021-01-31 13:00:00 17.1 10 Norte 18 Nordeste 0 -- -- 76
2021-01-31 12:00:00 15.9 7 Nordeste 12 Norte 0 -- -- 85
2021-01-31 11:00:00 17.2 3 Oeste 8 Sudoeste 0 -- -- 69
2021-01-31 10:00:00 17 2 Sudeste 9 Sur 0 -- -- 57
2021-01-31 09:00:00 12 5 Sudoeste 11 Sur 0 -- -- 57
2021-01-31 08:00:00 11 8 Sur 14 Sur 0 -- -- 68
2021-01-31 07:00:00 10.9 7 Sur 9 Sur 0 -- -- 68
2021-01-31 06:00:00 12.8 4 Sur 11 Sudeste 0 -- -- 75
2021-01-31 05:00:00 11.9 5 Sudeste 14 Sudoeste 0 -- -- 73
2021-01-31 04:00:00 11.5 7 Sur 10 Sur 0 -- -- 81
2021-01-31 03:00:00 11.4 3 Sudeste 12 Sudeste 0 -- -- 77
2021-01-31 02:00:00 10.9 6 Sur 13 Sudoeste 0 -- -- 79
2021-01-31 01:00:00 11.2 9 Sudoeste 14 Sudoeste 0 -- -- 81
2021-01-31 00:00:00 11.1 6 Sur 11 Sur 0 -- -- 75
2021-01-30 23:00:00 9.9 5 Sur 8 Sur 0 -- -- 67
2021-01-30 22:00:00 11.1 2 Sur 12 Sur 0 -- -- 76
2021-01-30 21:00:00 14.2 4 Sur 18 Sudeste 0 -- -- 57
2021-01-30 20:00:00 14.6 8 Sur 16 Sudeste 0 -- -- 39
2021-01-30 19:00:00 13.3 2 Oeste 8 Norte 0 -- -- 91
2021-01-30 18:00:00 14.8 5 Norte 16 Norte 0 -- -- 85
2021-01-30 17:00:00 16.2 7 Norte 17 Norte 0 -- -- 78
2021-01-30 16:00:00 16.4 8 Norte 17 Nordeste 0 -- -- 80
2021-01-30 15:00:00 16.9 10 Norte 19 Norte 0 -- -- 77
2021-01-30 14:00:00 17.1 10 Norte 17 Norte 0 -- -- 78
2021-01-30 13:00:00 17.5 7 Norte 15 Norte 0 -- -- 78
2021-01-30 12:00:00 17.2 7 Norte 13 Nordeste 0 -- -- 77
2021-01-30 11:00:00 17.3 3 Noroeste 9 Noroeste 0 -- -- 73
2021-01-30 10:00:00 16.1 2 Norte 9 Sur 0 -- -- 60
2021-01-30 09:00:00 10.8 6 Sudeste 14 Sudeste 0 -- -- 69
2021-01-30 08:00:00 11.8 9 Sur 14 Sudeste 0 -- -- 73
2021-01-30 07:00:00 12.5 5 Este 13 Sur 0 -- -- 62
2021-01-30 06:00:00 15.1 8 Noroeste 24 Sudeste 0 -- -- 35
2021-01-30 05:00:00 16.3 17 Sudeste 21 Sudeste 0 -- -- 26
2021-01-30 04:00:00 16.1 14 Sudeste 21 Sudeste 0 -- -- 29
2021-01-30 03:00:00 12.7 6 Sur 19 Sudeste 0 -- -- 84
2021-01-30 02:00:00 12.5 10 Sudeste 14 Sudeste 0 -- -- 76
2021-01-30 01:00:00 14.5 6 Sur 11 Este 0 -- -- 86
2021-01-30 00:00:00 15.7 6 Sur 22 Sudeste 0 -- -- 72